Angle Inlet, Minnesota
Current Conditions -  °F | °C
As of 11:54 PM on Friday 19 Dec 2014 (Local Time) from KFGN Reporting Station
Haze Haze  
Wind Chill: 13°   Ceiling: 700
Heat Index: 25°   Visibility: 2mi
Dew Point: 23°   Wind: 13mph
Humidity: 93%   Direction: 160°SSE
Pressure: 30.03"   Gusts: NA
Location:  49.35°N, 95.08°W
Report Text: KFGN 200554Z AUTO 16011KT 2SM BR OVC007 M04/M05 A3003 RMK AO2
Loading
Personal Weather Stations






























Interactive Weather Map New forecast layout! Learn more

10-Day Weather Forecast

Advertisements
Track Severe Weather on mobile